Time;durP1;ratioP1;P1;durP2;ratioP2;P2;SDS_P1;SDS_P2;PMS_P1;PMS_P2;Temp;Humidity;BMP_temperature;BMP_pressure;BME280_temperature;BME280_humidity;BME280_pressure;Samples;Min_cycle;Max_cycle;Signal;HPM_P1;HPM_P2
2021/11/21 00:01:39;;;;;;;7.57;6.07;;;6.60;87.10;;;;;;5048196;28;20184;-80
2021/11/21 00:04:05;;;;;;;11.27;5.97;;;;;;;;;;5047531;28;20175;-80
2021/11/21 00:06:31;;;;;;;9.90;6.00;;;;;;;;;;5047992;28;20182;-80
2021/11/21 00:08:57;;;;;;;10.83;7.73;;;;;;;;;;5046593;28;20188;-79
2021/11/21 00:11:23;;;;;;;13.03;6.77;;;;;;;;;;5049843;28;20204;-80
2021/11/21 00:13:50;;;;;;;7.83;6.53;;;;;;;;;;5047417;28;20248;-80
2021/11/21 00:16:16;;;;;;;12.50;6.13;;;6.10;88.30;;;;;;5046050;28;20631;-80
2021/11/21 00:18:42;;;;;;;9.97;6.17;;;;;;;;;;5048730;28;20267;-79
2021/11/21 00:21:08;;;;;;;8.70;5.63;;;6.00;88.70;;;;;;5047399;28;20187;-80
2021/11/21 00:23:34;;;;;;;6.47;5.40;;;;;;;;;;5048613;28;20184;-80
2021/11/21 00:26:01;;;;;;;11.10;6.17;;;5.90;88.80;;;;;;5047679;28;20196;-80
2021/11/21 00:28:27;;;;;;;7.63;5.43;;;5.90;89.00;;;;;;5048563;28;20590;-79
2021/11/21 00:30:53;;;;;;;10.60;6.00;;;;;;;;;;5046635;28;20278;-80
2021/11/21 00:33:19;;;;;;;8.73;5.97;;;5.80;89.60;;;;;;5047150;28;20266;-79
2021/11/21 00:35:45;;;;;;;13.27;6.60;;;5.70;89.70;;;;;;5045666;28;20245;-80
2021/11/21 00:38:12;;;;;;;9.53;6.63;;;5.60;89.60;;;;;;5047942;28;21011;-80
2021/11/21 00:40:38;;;;;;;8.93;5.73;;;;;;;;;;5046745;28;20220;-79
2021/11/21 00:43:04;;;;;;;5.40;4.97;;;5.50;89.90;;;;;;5048425;28;20180;-80
2021/11/21 00:45:33;;;;;;;6.97;5.27;;;5.50;90.10;;;;;;5044446;28;20195;-79
2021/11/21 00:47:59;;;;;;;9.30;6.53;;;5.50;90.30;;;;;;5046720;28;20187;-79
2021/11/21 00:50:28;;;;;;;7.13;4.73;;;5.40;90.50;;;;;;5047332;28;20187;-80
2021/11/21 00:53:05;;;;;;;8.17;5.40;;;5.40;90.60;;;;;;5043650;28;20218;-80
2021/11/21 00:56:01;;;;;;;9.63;5.87;;;5.30;90.90;;;;;;5046652;28;20188;-80
2021/11/21 00:58:24;;;;;;;6.47;5.07;;;5.30;91.20;;;;;;5044722;28;20188;-80
2021/11/21 01:00:50;;;;;;;10.23;5.80;;;5.20;91.10;;;;;;5047186;28;20929;-78
2021/11/21 01:03:19;;;;;;;7.83;5.60;;;5.20;91.30;;;;;;5047666;28;20179;-78
2021/11/21 01:05:46;;;;;;;6.27;4.53;;;5.20;91.70;;;;;;5046474;28;20225;-79
2021/11/21 01:08:13;;;;;;;7.67;4.97;;;5.20;91.60;;;;;;5045134;28;20208;-80
2021/11/21 01:10:40;;;;;;;4.40;3.80;;;5.20;91.80;;;;;;5047418;28;20191;-80
2021/11/21 01:13:06;;;;;;;6.53;4.87;;;5.20;91.80;;;;;;5045895;28;20188;-80
2021/11/21 01:15:32;;;;;;;4.90;4.40;;;5.10;93.10;;;;;;5043185;28;20233;-81
2021/11/21 01:17:58;;;;;;;4.93;3.90;;;5.10;92.70;;;;;;5044874;28;20203;-80
2021/11/21 01:20:28;;;;;;;4.43;3.93;;;5.10;92.60;;;;;;5045133;28;20220;-78
2021/11/21 01:22:55;;;;;;;3.77;3.40;;;5.10;92.50;;;;;;5046254;28;20278;-78
2021/11/21 01:25:21;;;;;;;3.80;3.50;;;5.10;92.50;;;;;;5045016;28;21457;-78
2021/11/21 01:27:47;;;;;;;2.67;2.47;;;;;;;;;;5046683;28;20233;-80
2021/11/21 01:30:18;;;;;;;4.33;3.97;;;5.00;92.60;;;;;;5046090;28;20183;-78
2021/11/21 01:32:44;;;;;;;5.17;3.83;;;5.10;92.40;;;;;;5044670;28;20191;-79
2021/11/21 01:35:11;;;;;;;5.20;3.30;;;5.00;92.50;;;;;;5047589;28;20191;-78
2021/11/21 01:37:37;;;;;;;5.67;3.90;;;5.00;92.50;;;;;;5044638;28;20188;-79
2021/11/21 01:40:05;;;;;;;11.23;3.43;;;5.00;92.70;;;;;;5045261;28;20215;-78
2021/11/21 01:42:31;;;;;;;4.47;4.10;;;5.00;92.70;;;;;;5046752;28;20190;-79
2021/11/21 01:44:57;;;;;;;7.27;4.37;;;;;;;;;;5045928;28;20665;-78
2021/11/21 01:47:23;;;;;;;9.23;4.43;;;;;;;;;;5044339;28;20274;-78
2021/11/21 01:49:49;;;;;;;4.10;3.57;;;4.90;92.90;;;;;;5045940;28;20637;-78
2021/11/21 01:52:15;;;;;;;5.47;4.57;;;4.90;92.60;;;;;;5041864;28;20187;-78
2021/11/21 01:54:41;;;;;;;5.60;4.40;;;4.90;92.50;;;;;;5044735;28;20195;-77
2021/11/21 01:57:07;;;;;;;6.53;4.80;;;4.80;92.60;;;;;;5045237;28;20180;-79
2021/11/21 01:59:34;;;;;;;3.63;3.37;;;4.80;92.50;;;;;;5045459;28;20239;-77
2021/11/21 02:02:00;;;;;;;5.13;3.30;;;;;;;;;;5046679;28;20205;-77
2021/11/21 02:04:26;;;;;;;10.90;4.23;;;4.80;92.40;;;;;;5045680;28;20184;-79
2021/11/21 02:06:52;;;;;;;5.20;4.17;;;4.80;92.30;;;;;;5045292;28;20755;-78
2021/11/21 02:09:18;;;;;;;6.03;4.03;;;;;;;;;;5047419;28;20187;-77
2021/11/21 02:11:44;;;;;;;4.40;3.97;;;;;;;;;;5045534;28;20915;-77
2021/11/21 02:14:11;;;;;;;6.50;3.63;;;;;;;;;;5045924;28;20293;-77
2021/11/21 02:16:37;;;;;;;5.73;3.73;;;4.70;92.60;;;;;;5045779;28;20191;-77
2021/11/21 02:19:04;;;;;;;5.33;3.57;;;4.70;92.70;;;;;;5045728;28;20188;-77
2021/11/21 02:21:30;;;;;;;3.93;3.37;;;;;;;;;;5045148;28;20790;-77
2021/11/21 02:23:56;;;;;;;4.27;3.57;;;4.60;92.80;;;;;;5045787;28;20184;-77
2021/11/21 02:26:22;;;;;;;3.77;3.23;;;4.60;92.70;;;;;;5047472;28;20293;-77
2021/11/21 02:28:54;;;;;;;3.30;3.10;;;4.60;92.70;;;;;;5043627;28;21142;-78
2021/11/21 02:31:20;;;;;;;5.03;3.13;;;4.60;92.60;;;;;;5045531;28;20230;-77
2021/11/21 02:33:49;;;;;;;5.60;3.03;;;4.50;92.60;;;;;;5045017;28;20183;-77
2021/11/21 02:36:15;;;;;;;5.80;3.60;;;4.50;92.50;;;;;;5041834;28;20249;-77
2021/11/21 02:38:41;;;;;;;5.40;3.50;;;4.50;92.60;;;;;;5045930;28;20324;-78
2021/11/21 02:41:08;;;;;;;4.40;4.00;;;4.50;92.70;;;;;;5046167;28;20211;-77
2021/11/21 02:43:35;;;;;;;4.00;2.37;;;4.50;92.70;;;;;;5046909;28;20183;-77
2021/11/21 02:46:01;;;;;;;3.97;3.53;;;4.50;92.80;;;;;;5044069;28;20188;-77
2021/11/21 02:48:30;;;;;;;3.00;2.80;;;4.50;92.80;;;;;;5045778;28;20187;-77
2021/11/21 02:50:56;;;;;;;4.83;2.70;;;4.50;92.70;;;;;;5043975;28;20187;-77
2021/11/21 02:53:26;;;;;;;3.50;2.57;;;4.40;92.50;;;;;;5045338;28;20614;-79
2021/11/21 02:55:56;;;;;;;3.47;2.50;;;4.40;92.60;;;;;;5045035;28;20219;-77
2021/11/21 02:58:24;;;;;;;3.60;3.20;;;4.40;92.50;;;;;;5043879;28;20192;-77
2021/11/21 03:00:50;;;;;;;3.47;3.17;;;4.40;92.60;;;;;;5045693;28;20206;-77
2021/11/21 03:03:16;;;;;;;3.40;2.77;;;4.30;92.60;;;;;;5047890;28;20191;-77
2021/11/21 03:05:42;;;;;;;3.53;3.10;;;4.30;92.50;;;;;;5044862;28;20179;-77
2021/11/21 03:08:08;;;;;;;5.10;3.57;;;;;;;;;;5046375;28;20201;-79
2021/11/21 03:10:34;;;;;;;3.40;3.07;;;4.20;92.80;;;;;;5043906;28;20199;-77
2021/11/21 03:13:04;;;;;;;3.87;3.17;;;4.20;92.80;;;;;;5044893;28;20588;-77
2021/11/21 03:15:30;;;;;;;3.47;3.17;;;4.20;92.80;;;;;;5045501;28;20195;-77
2021/11/21 03:17:56;;;;;;;5.87;3.60;;;;;;;;;;5044005;28;20183;-77
2021/11/21 03:20:26;;;;;;;5.67;3.63;;;4.10;92.90;;;;;;5042312;28;20247;-78
2021/11/21 03:22:54;;;;;;;5.83;3.90;;;4.10;93.00;;;;;;5042107;28;20215;-78
2021/11/21 03:25:20;;;;;;;3.23;3.03;;;4.10;92.90;;;;;;5041077;28;20686;-77
2021/11/21 03:27:46;;;;;;;4.57;4.17;;;4.00;93.00;;;;;;5045714;28;20755;-77
2021/11/21 03:30:17;;;;;;;3.93;3.60;;;4.00;93.10;;;;;;5042455;28;20748;-77
2021/11/21 03:32:43;;;;;;;3.77;3.47;;;4.00;93.00;;;;;;5044757;28;20298;-77
2021/11/21 03:35:09;;;;;;;4.50;2.77;;;4.00;93.20;;;;;;5048433;28;20188;-78
2021/11/21 03:37:35;;;;;;;3.23;3.03;;;4.00;93.20;;;;;;5048965;28;20184;-78
2021/11/21 03:40:04;;;;;;;3.00;2.60;;;4.00;93.10;;;;;;5047312;28;20211;-77
2021/11/21 03:42:30;;;;;;;2.50;2.33;;;3.90;93.10;;;;;;5048169;28;20729;-77
2021/11/21 03:44:56;;;;;;;4.90;3.43;;;3.90;93.00;;;;;;5044159;28;20333;-79
2021/11/21 03:47:22;;;;;;;6.27;3.83;;;3.90;93.00;;;;;;5048149;28;20188;-79
2021/11/21 03:49:48;;;;;;;5.07;4.57;;;3.80;93.10;;;;;;5047977;28;20183;-78
2021/11/21 03:52:14;;;;;;;3.40;3.00;;;3.80;93.20;;;;;;5049746;28;20673;-79
2021/11/21 03:54:40;;;;;;;5.70;4.47;;;3.80;93.30;;;;;;5049355;28;20262;-79
2021/11/21 03:57:07;;;;;;;4.00;3.60;;;3.80;93.30;;;;;;5038735;28;20272;-79
2021/11/21 03:59:33;;;;;;;4.33;3.77;;;3.80;93.20;;;;;;5046926;28;20345;-78
2021/11/21 04:01:59;;;;;;;4.87;3.33;;;;;;;;;;5048816;28;20184;-78
2021/11/21 04:04:27;;;;;;;6.37;4.20;;;3.70;93.60;;;;;;5049370;28;20954;-78
2021/11/21 04:06:53;;;;;;;5.63;5.03;;;;;;;;;;5047937;28;20291;-78
2021/11/21 04:09:19;;;;;;;4.93;4.23;;;3.70;94.00;;;;;;5048468;28;20947;-78
2021/11/21 04:11:45;;;;;;;5.10;4.17;;;3.70;94.10;;;;;;5046546;28;20191;-77
2021/11/21 04:14:11;;;;;;;6.20;5.33;;;3.70;94.00;;;;;;5049264;28;20187;-79
2021/11/21 04:16:37;;;;;;;5.43;4.00;;;3.70;94.00;;;;;;5049072;28;20684;-78
2021/11/21 04:19:04;;;;;;;7.07;4.30;;;3.70;93.90;;;;;;5046916;28;20211;-77
2021/11/21 04:21:31;;;;;;;10.13;5.57;;;3.60;94.10;;;;;;5046747;28;20231;-78
2021/11/21 04:23:57;;;;;;;6.60;4.07;;;3.60;94.20;;;;;;5047597;28;20180;-79
2021/11/21 04:26:23;;;;;;;5.80;4.47;;;3.60;94.30;;;;;;5048290;28;20916;-79
2021/11/21 04:28:49;;;;;;;6.43;4.57;;;3.60;94.40;;;;;;5049810;28;20551;-79
2021/11/21 04:31:15;;;;;;;4.63;3.57;;;;;;;;;;5047570;28;20194;-79
2021/11/21 04:33:42;;;;;;;7.00;4.87;;;3.60;94.60;;;;;;5047563;28;20180;-79
2021/11/21 04:36:09;;;;;;;8.80;5.37;;;;;;;;;;5047656;28;20187;-78
2021/11/21 04:38:35;;;;;;;6.93;5.23;;;;;;;;;;5050230;28;20198;-78
2021/11/21 04:41:01;;;;;;;6.10;4.20;;;3.60;95.00;;;;;;5046855;28;20215;-78
2021/11/21 04:43:27;;;;;;;7.53;4.70;;;3.50;94.90;;;;;;5047547;28;20188;-78
2021/11/21 04:45:54;;;;;;;6.33;4.57;;;3.50;95.00;;;;;;5049728;28;20682;-78
2021/11/21 04:48:20;;;;;;;9.73;4.70;;;3.50;94.90;;;;;;5046554;28;20202;-79
2021/11/21 04:50:46;;;;;;;6.03;4.07;;;3.50;94.90;;;;;;5047337;28;20707;-78
2021/11/21 04:53:13;;;;;;;6.07;4.30;;;3.50;94.90;;;;;;5049279;28;20318;-79
2021/11/21 04:55:39;;;;;;;4.87;4.37;;;3.50;94.90;;;;;;5045486;28;20190;-79
2021/11/21 04:58:05;;;;;;;4.73;4.23;;;;;;;;;;5046303;28;20192;-79
2021/11/21 05:00:32;;;;;;;7.80;4.60;;;3.40;94.80;;;;;;5044998;28;20211;-79
2021/11/21 05:02:58;;;;;;;4.00;3.60;;;;;;;;;;5047854;28;20248;-79
2021/11/21 05:05:25;;;;;;;7.00;4.67;;;3.40;94.70;;;;;;5047524;28;20180;-79
2021/11/21 05:07:51;;;;;;;4.47;4.17;;;3.40;94.60;;;;;;5047350;28;20222;-79
2021/11/21 05:10:18;;;;;;;8.40;4.03;;;3.40;94.70;;;;;;5047378;28;20206;-79
2021/11/21 05:12:44;;;;;;;3.27;3.07;;;3.40;94.60;;;;;;5045535;28;20179;-79
2021/11/21 05:15:13;;;;;;;6.27;3.97;;;3.40;94.60;;;;;;5046619;28;20787;-78
2021/11/21 05:17:39;;;;;;;6.37;4.67;;;3.40;94.70;;;;;;5046713;28;20184;-78
2021/11/21 05:20:05;;;;;;;9.53;4.40;;;3.30;94.50;;;;;;5047951;28;20215;-78
2021/11/21 05:22:31;;;;;;;5.17;4.60;;;;;;;;;;5045848;28;20270;-78
2021/11/21 05:24:58;;;;;;;6.93;5.20;;;;;;;;;;5045772;28;20222;-78
2021/11/21 05:27:24;;;;;;;5.50;4.40;;;3.30;94.50;;;;;;5046045;28;20187;-79
2021/11/21 05:29:53;;;;;;;5.53;4.67;;;3.30;94.60;;;;;;5047104;28;20184;-77
2021/11/21 05:32:20;;;;;;;4.43;4.07;;;3.20;94.80;;;;;;5045963;28;20195;-78
2021/11/21 05:34:46;;;;;;;5.37;4.83;;;3.30;94.90;;;;;;5046596;28;20736;-78
2021/11/21 05:37:13;;;;;;;11.17;5.27;;;3.30;94.90;;;;;;5048186;28;20195;-78
2021/11/21 05:39:39;;;;;;;5.47;3.70;;;;;;;;;;5046481;28;20203;-78
2021/11/21 05:42:05;;;;;;;6.53;3.20;;;3.30;94.80;;;;;;5046926;28;20184;-78
2021/11/21 05:44:32;;;;;;;4.23;3.90;;;;;;;;;;5028986;28;20212;-79
2021/11/21 05:46:58;;;;;;;4.07;3.67;;;3.40;94.90;;;;;;5045567;28;20188;-77
2021/11/21 05:49:24;;;;;;;7.30;4.17;;;;;;;;;;5045885;28;20187;-79
2021/11/21 05:51:50;;;;;;;4.10;3.70;;;3.40;94.70;;;;;;5044842;28;20237;-76
2021/11/21 05:54:16;;;;;;;7.03;3.70;;;3.40;94.60;;;;;;5044651;28;20175;-77
2021/11/21 05:56:42;;;;;;;5.77;3.60;;;3.40;94.60;;;;;;5047312;28;20188;-77
2021/11/21 05:59:08;;;;;;;4.93;4.50;;;;;;;;;;5046249;28;20263;-78
2021/11/21 06:01:34;;;;;;;6.73;5.40;;;;;;;;;;5045023;28;20172;-78
2021/11/21 06:03:59;;;;;;;7.87;4.80;;;3.50;94.60;;;;;;5047161;28;20186;-77
2021/11/21 06:06:25;;;;;;;7.10;5.13;;;;;;;;;;5047514;28;20179;-77
2021/11/21 06:08:51;;;;;;;8.97;6.17;;;3.60;94.70;;;;;;5049205;28;20191;-78
2021/11/21 06:11:17;;;;;;;7.00;5.13;;;3.60;94.60;;;;;;5046759;28;20207;-78
2021/11/21 06:13:43;;;;;;;6.80;5.07;;;3.70;94.60;;;;;;5044191;28;20211;-75
2021/11/21 06:16:09;;;;;;;6.23;4.60;;;3.80;94.80;;;;;;5042812;28;20184;-77
2021/11/21 06:18:35;;;;;;;4.83;4.33;;;3.90;94.80;;;;;;5044621;28;20249;-77
2021/11/21 06:21:02;;;;;;;8.50;4.57;;;4.00;94.90;;;;;;5043702;28;20207;-78
2021/11/21 06:23:33;;;;;;;6.23;4.60;;;;;;;;;;5042807;28;20184;-78
2021/11/21 06:25:59;;;;;;;6.13;5.37;;;4.30;95.50;;;;;;5044756;28;20188;-78
2021/11/21 06:28:25;;;;;;;7.03;4.87;;;4.60;95.90;;;;;;5045026;28;20595;-78
2021/11/21 06:30:52;;;;;;;7.73;4.90;;;4.90;95.80;;;;;;5042080;28;20190;-79
2021/11/21 06:33:18;;;;;;;10.60;6.23;;;5.20;95.10;;;;;;5044634;28;20211;-78
2021/11/21 06:35:44;;;;;;;13.70;6.83;;;5.50;94.20;;;;;;5044160;28;20673;-77
2021/11/21 06:38:10;;;;;;;13.47;6.07;;;;;;;;;;5042305;28;20184;-76
2021/11/21 06:40:36;;;;;;;5.97;4.93;;;;;;;;;;5045084;28;21414;-77
2021/11/21 06:43:01;;;;;;;7.63;5.73;;;6.50;93.40;;;;;;5043907;28;20257;-77
2021/11/21 06:45:27;;;;;;;12.20;6.00;;;7.00;92.90;;;;;;5044084;28;20275;-77
2021/11/21 06:47:53;;;;;;;7.47;5.43;;;;;;;;;;5044206;28;20175;-77
2021/11/21 06:50:19;;;;;;;16.03;7.50;;;;;;;;;;5044862;28;20253;-77
2021/11/21 06:52:46;;;;;;;9.47;6.87;;;8.40;89.00;;;;;;5044643;28;20183;-77
2021/11/21 06:55:16;;;;;;;9.20;7.37;;;8.60;87.50;;;;;;5044028;28;20176;-77
2021/11/21 06:57:42;;;;;;;9.37;6.50;;;;;;;;;;5044071;28;20192;-79
2021/11/21 07:00:12;;;;;;;15.10;7.53;;;9.30;85.90;;;;;;5045077;28;20215;-79
2021/11/21 07:02:38;;;;;;;9.70;7.47;;;9.50;84.80;;;;;;5044539;28;20215;-80
2021/11/21 07:05:04;;;;;;;22.47;8.53;;;9.60;82.60;;;;;;5046541;28;20215;-79
2021/11/21 07:07:31;;;;;;;14.00;8.43;;;9.50;79.90;;;;;;5047436;28;20230;-79
2021/11/21 07:09:56;;;;;;;12.97;8.67;;;9.40;80.10;;;;;;5046337;28;20186;-79
2021/11/21 07:12:22;;;;;;;16.13;7.83;;;;;;;;;;5045978;28;20211;-78
2021/11/21 07:14:48;;;;;;;9.43;7.70;;;;;;;;;;5046924;28;20587;-80
2021/11/21 07:17:14;;;;;;;11.13;7.13;;;;;;;;;;5046403;28;20175;-80
2021/11/21 07:19:40;;;;;;;9.57;7.30;;;8.50;81.60;;;;;;5045941;28;20199;-80
2021/11/21 07:22:06;;;;;;;12.70;8.23;;;8.30;81.70;;;;;;5046348;28;20197;-80
2021/11/21 07:24:33;;;;;;;17.23;7.73;;;8.20;82.10;;;;;;5045336;28;20181;-78
2021/11/21 07:26:59;;;;;;;18.27;9.33;;;8.10;82.60;;;;;;5047124;28;20610;-78
2021/11/21 07:29:29;;;;;;;10.13;7.53;;;8.00;82.40;;;;;;5047468;28;20241;-79
2021/11/21 07:32:01;;;;;;;16.17;7.30;;;7.90;82.80;;;;;;5046369;28;20266;-78
2021/11/21 07:34:27;;;;;;;12.70;8.53;;;7.90;83.00;;;;;;5043905;28;20179;-78
2021/11/21 07:36:54;;;;;;;17.90;8.27;;;;;;;;;;5043449;28;20184;-77
2021/11/21 07:39:19;;;;;;;14.77;8.63;;;7.70;82.90;;;;;;5045447;28;20214;-77
2021/11/21 07:41:46;;;;;;;14.60;8.73;;;7.70;83.20;;;;;;5045153;28;20188;-77
2021/11/21 07:44:12;;;;;;;13.43;8.57;;;7.70;83.10;;;;;;5044355;28;20636;-76
2021/11/21 07:46:38;;;;;;;12.33;8.33;;;7.70;83.50;;;;;;5044922;28;20198;-78
2021/11/21 07:49:05;;;;;;;14.30;8.13;;;7.70;83.60;;;;;;5046724;28;20179;-76
2021/11/21 07:51:31;;;;;;;15.47;8.30;;;7.70;83.60;;;;;;5044199;28;20563;-76
2021/11/21 07:53:57;;;;;;;10.40;7.10;;;;;;;;;;5045178;28;21082;-76
2021/11/21 07:56:23;;;;;;;11.03;7.63;;;7.80;83.70;;;;;;5043358;28;20183;-76
2021/11/21 07:58:49;;;;;;;12.20;6.47;;;7.90;83.30;;;;;;5044815;28;20172;-76
2021/11/21 08:01:16;;;;;;;8.37;6.40;;;;;;;;;;5042775;28;21128;-76
2021/11/21 08:03:41;;;;;;;9.33;7.07;;;8.00;83.50;;;;;;5049661;28;20180;-78
2021/11/21 08:06:07;;;;;;;7.53;6.07;;;8.00;83.40;;;;;;5050524;28;20192;-77
2021/11/21 08:08:33;;;;;;;8.20;6.27;;;8.10;83.40;;;;;;5046250;28;20180;-77
2021/11/21 08:10:59;;;;;;;11.60;5.93;;;8.10;83.50;;;;;;5042290;28;20192;-79
2021/11/21 08:13:26;;;;;;;7.03;5.33;;;8.20;83.20;;;;;;5044070;28;20255;-79
2021/11/21 08:15:53;;;;;;;9.27;6.43;;;8.30;83.20;;;;;;5044550;28;20184;-79
2021/11/21 08:18:19;;;;;;;8.40;6.53;;;;;;;;;;5047195;28;20215;-79
2021/11/21 08:20:45;;;;;;;8.90;6.53;;;;;;;;;;5048235;28;20203;-79
2021/11/21 08:23:11;;;;;;;9.83;6.57;;;8.40;83.20;;;;;;5049888;28;20192;-77
2021/11/21 08:25:37;;;;;;;13.80;8.13;;;8.50;82.90;;;;;;5046946;28;20653;-79
2021/11/21 08:28:04;;;;;;;13.53;7.57;;;8.50;82.70;;;;;;5048770;28;20192;-78
2021/11/21 08:30:32;;;;;;;12.03;7.80;;;;;;;;;;5051169;28;20585;-78
2021/11/21 08:32:58;;;;;;;13.53;7.63;;;8.60;83.00;;;;;;5047326;28;20191;-77
2021/11/21 08:35:24;;;;;;;12.63;7.30;;;8.60;83.00;;;;;;5046142;28;20184;-81
2021/11/21 08:37:50;;;;;;;12.23;7.87;;;;;;;;;;5048597;28;20658;-78
2021/11/21 08:40:16;;;;;;;11.90;6.57;;;8.70;83.00;;;;;;5050652;28;20211;-79
2021/11/21 08:42:42;;;;;;;11.67;7.30;;;;;;;;;;5051113;28;20727;-77
2021/11/21 08:45:09;;;;;;;9.60;7.30;;;8.80;82.70;;;;;;5049297;28;20188;-78
2021/11/21 08:47:36;;;;;;;10.50;7.53;;;8.90;82.90;;;;;;5055533;28;20187;-79
2021/11/21 08:50:05;;;;;;;8.13;6.70;;;9.10;82.70;;;;;;5054609;28;20210;-79
2021/11/21 08:52:31;;;;;;;10.93;7.33;;;9.20;82.70;;;;;;5053368;28;20172;-78
2021/11/21 08:54:57;;;;;;;14.60;7.43;;;9.30;82.60;;;;;;5051756;28;20191;-78
2021/11/21 08:57:23;;;;;;;9.13;6.87;;;9.50;82.20;;;;;;5050657;28;20184;-75
2021/11/21 08:59:49;;;;;;;9.67;7.30;;;;;;;;;;5056643;28;20212;-78
2021/11/21 09:02:14;;;;;;;13.77;8.27;;;9.90;81.50;;;;;;5051528;28;20187;-76
2021/11/21 09:04:40;;;;;;;11.37;7.57;;;;;;;;;;5050227;28;20180;-75
2021/11/21 09:07:07;;;;;;;11.30;7.83;;;10.20;80.30;;;;;;5051996;28;20191;-78
2021/11/21 09:09:33;;;;;;;9.13;7.00;;;10.50;80.30;;;;;;5049861;28;20198;-75
2021/11/21 09:11:59;;;;;;;10.07;6.67;;;10.60;79.10;;;;;;5047443;28;20778;-77
2021/11/21 09:14:26;;;;;;;13.90;7.03;;;10.70;79.00;;;;;;5055455;28;20239;-76
2021/11/21 09:16:53;;;;;;;12.60;7.40;;;10.80;78.20;;;;;;5052802;28;20195;-82
2021/11/21 09:19:19;;;;;;;9.50;7.25;;;10.80;78.00;;;;;;5055748;28;20192;-78
2021/11/21 09:21:45;;;;;;;10.63;7.50;;;11.00;78.50;;;;;;5068749;28;20183;-79
2021/11/21 09:24:11;;;;;;;9.55;8.05;;;11.10;78.00;;;;;;5065812;28;20198;-78
2021/11/21 09:26:37;;;;;;;9.93;6.72;;;11.30;77.60;;;;;;5069831;28;20191;-78
2021/11/21 09:29:03;;;;;;;9.40;7.47;;;11.50;77.80;;;;;;5067414;28;20214;-78
2021/11/21 09:31:29;;;;;;;7.45;6.47;;;12.00;77.70;;;;;;5067235;28;20194;-77
2021/11/21 09:33:55;;;;;;;7.43;6.63;;;12.60;79.40;;;;;;5060946;28;20180;-78
2021/11/21 09:36:21;;;;;;;7.22;6.53;;;13.50;77.40;;;;;;5067306;28;20180;-78
2021/11/21 09:38:48;;;;;;;11.75;7.63;;;14.40;73.70;;;;;;5067018;28;20172;-78
2021/11/21 09:41:14;;;;;;;11.55;7.50;;;15.50;73.80;;;;;;5061509;28;20652;-78
2021/11/21 09:43:43;;;;;;;10.48;7.40;;;16.60;70.70;;;;;;5066337;28;20183;-78
2021/11/21 09:46:10;;;;;;;11.70;7.00;;;17.30;68.20;;;;;;5064551;28;20203;-79
2021/11/21 09:48:37;;;;;;;7.32;5.93;;;18.00;67.00;;;;;;5065899;28;20168;-78
2021/11/21 09:51:03;;;;;;;7.00;5.95;;;18.60;65.20;;;;;;5066722;28;20190;-78
2021/11/21 09:53:29;;;;;;;5.63;5.13;;;18.90;62.80;;;;;;5070866;28;20239;-79
2021/11/21 09:55:58;;;;;;;5.72;5.22;;;19.00;62.10;;;;;;5069113;28;20190;-79
2021/11/21 09:58:24;;;;;;;4.63;4.22;;;19.20;62.40;;;;;;5069139;28;20191;-78
2021/11/21 10:00:50;;;;;;;4.78;4.43;;;19.80;63.60;;;;;;5063035;28;20707;-80
2021/11/21 10:03:18;;;;;;;5.95;5.32;;;20.30;60.40;;;;;;5060147;28;20195;-79
2021/11/21 10:05:50;;;;;;;9.30;7.07;;;20.80;60.60;;;;;;5064807;28;20190;-78
2021/11/21 10:08:17;;;;;;;8.70;7.72;;;21.40;60.00;;;;;;5058279;28;20168;-80
2021/11/21 10:10:56;;;;;;;8.48;7.13;;;21.90;58.90;;;;;;5046663;28;20697;-81
2021/11/21 10:13:37;;;;;;;11.48;7.60;;;22.20;58.10;;;;;;5043966;28;20187;-81
2021/11/21 10:16:17;;;;;;;10.00;8.00;;;22.60;56.90;;;;;;5041493;28;20211;-82
2021/11/21 10:18:50;;;;;;;9.50;6.38;;;23.20;56.00;;;;;;5042762;28;20671;-79
2021/11/21 10:21:21;;;;;;;8.50;7.65;;;23.60;55.00;;;;;;5043866;28;20574;-78
2021/11/21 10:23:47;;;;;;;6.28;5.68;;;23.50;56.60;;;;;;5046512;28;21008;-80
2021/11/21 10:26:23;;;;;;;6.63;6.07;;;23.60;55.90;;;;;;5045589;28;20198;-80
2021/11/21 10:28:50;;;;;;;6.68;6.07;;;23.60;55.70;;;;;;5044006;28;20213;-80
2021/11/21 10:31:20;;;;;;;8.35;7.13;;;23.80;56.40;;;;;;5045221;28;20187;-81
2021/11/21 10:33:58;;;;;;;7.30;6.57;;;23.80;56.60;;;;;;5044017;28;20183;-82
2021/11/21 10:36:29;;;;;;;7.68;6.70;;;24.10;55.70;;;;;;5046444;28;20554;-82
2021/11/21 10:38:58;;;;;;;6.82;6.22;;;24.40;53.50;;;;;;5043789;28;20191;-82
2021/11/21 10:41:31;;;;;;;7.47;6.70;;;24.70;51.40;;;;;;5044340;28;20214;-82
2021/11/21 10:44:20;;;;;;;8.27;7.43;;;25.10;52.40;;;;;;5045031;28;20823;-81
2021/11/21 10:46:47;;;;;;;7.78;7.03;;;25.50;52.70;;;;;;5043570;28;21010;-79
2021/11/21 10:49:15;;;;;;;6.55;6.00;;;25.50;53.70;;;;;;5047352;28;20225;-81
2021/11/21 10:51:41;;;;;;;9.05;7.18;;;25.50;50.10;;;;;;5046823;28;20259;-82
2021/11/21 10:54:34;;;;;;;8.38;7.47;;;25.50;49.90;;;;;;5046582;28;20183;-81
2021/11/21 10:57:04;;;;;;;9.05;7.55;;;25.70;52.20;;;;;;5048600;28;21228;-77
2021/11/21 10:59:51;;;;;;;9.73;7.95;;;25.80;50.80;;;;;;5051400;28;20199;-77
2021/11/21 11:02:32;;;;;;;8.23;7.40;;;25.90;51.60;;;;;;5049959;28;20218;-76
2021/11/21 11:05:18;;;;;;;7.03;6.50;;;26.20;51.40;;;;;;5048707;28;20762;-77
2021/11/21 11:07:46;;;;;;;12.32;8.23;;;26.40;49.10;;;;;;5046132;28;20692;-76
2021/11/21 11:10:20;;;;;;;9.93;8.40;;;26.10;49.70;;;;;;5044277;28;20191;-75
2021/11/21 11:12:48;;;;;;;9.52;8.52;;;25.70;48.70;;;;;;5047656;28;20176;-75
2021/11/21 11:15:15;;;;;;;7.57;6.88;;;25.70;51.30;;;;;;5042651;28;20172;-76
2021/11/21 11:17:41;;;;;;;9.07;7.80;;;25.50;50.20;;;;;;5046865;28;20195;-77
2021/11/21 11:20:14;;;;;;;9.95;7.70;;;25.00;51.40;;;;;;5044420;28;20725;-75
2021/11/21 11:22:40;;;;;;;8.50;7.55;;;24.60;52.30;;;;;;5044218;28;20206;-76
2021/11/21 11:25:34;;;;;;;7.68;6.93;;;24.50;49.90;;;;;;5039799;28;21982;-76
2021/11/21 11:28:19;;;;;;;11.10;8.20;;;24.50;52.60;;;;;;5045160;28;20195;-76
2021/11/21 11:30:46;;;;;;;9.50;7.25;;;23.90;51.20;;;;;;5044652;28;20214;-75
2021/11/21 11:33:15;;;;;;;8.85;7.68;;;23.90;50.90;;;;;;5045977;28;20519;-76
2021/11/21 11:35:41;;;;;;;9.35;8.05;;;23.90;53.60;;;;;;5042879;28;20270;-75
2021/11/21 11:38:15;;;;;;;9.70;8.32;;;24.10;53.30;;;;;;5046079;28;20253;-76
2021/11/21 11:40:44;;;;;;;11.00;7.88;;;24.30;52.10;;;;;;5044763;28;20202;-77
2021/11/21 11:43:16;;;;;;;7.45;6.80;;;24.50;52.70;;;;;;5044797;28;20265;-76
2021/11/21 11:45:48;;;;;;;7.35;6.70;;;24.50;53.10;;;;;;5045685;28;20183;-76
2021/11/21 11:48:32;;;;;;;7.38;6.38;;;24.50;51.10;;;;;;5045476;28;20653;-76
2021/11/21 11:51:00;;;;;;;7.05;6.30;;;24.40;53.20;;;;;;5044926;28;20190;-76
2021/11/21 11:53:48;;;;;;;8.20;7.40;;;24.40;53.30;;;;;;5045724;28;20167;-76
2021/11/21 11:56:20;;;;;;;7.82;6.03;;;24.60;50.90;;;;;;5046065;28;20199;-77
2021/11/21 11:58:49;;;;;;;7.20;6.57;;;24.90;54.00;;;;;;5050129;28;20735;-75
2021/11/21 12:01:38;;;;;;;7.75;7.03;;;25.10;53.20;;;;;;5049379;28;20219;-76
2021/11/21 12:04:24;;;;;;;10.00;8.20;;;25.40;50.70;;;;;;5048314;28;20661;-75
2021/11/21 12:06:53;;;;;;;8.38;6.78;;;25.50;50.40;;;;;;5004222;28;20247;-76
2021/11/21 12:09:25;;;;;;;9.13;6.90;;;25.50;50.50;;;;;;5004941;28;20193;-76
2021/11/21 12:12:00;;;;;;;8.05;7.30;;;25.50;51.30;;;;;;5004024;28;20275;-77
2021/11/21 12:14:47;;;;;;;10.23;7.97;;;25.60;50.50;;;;;;5003500;28;20258;-77
2021/11/21 12:17:19;;;;;;;8.93;7.97;;;25.60;49.20;;;;;;5002450;28;20288;-77
2021/11/21 12:19:53;;;;;;;9.05;7.18;;;25.60;49.80;;;;;;5004879;28;20213;-77
2021/11/21 12:22:28;;;;;;;8.45;7.10;;;25.30;50.70;;;;;;5004456;28;20208;-77
2021/11/21 12:24:58;;;;;;;14.65;6.72;;;25.20;51.50;;;;;;5005453;28;20262;-77
2021/11/21 12:27:29;;;;;;;8.10;6.75;;;25.30;51.20;;;;;;5004963;28;20220;-76
2021/11/21 12:30:23;;;;;;;8.75;7.10;;;25.30;52.50;;;;;;5004033;28;20650;-77
2021/11/21 12:32:53;;;;;;;7.63;6.97;;;25.30;49.90;;;;;;5004820;28;20663;-77
2021/11/21 12:35:27;;;;;;;10.02;7.82;;;25.10;50.60;;;;;;5005415;28;20199;-76
2021/11/21 12:37:55;;;;;;;8.68;7.75;;;25.00;51.60;;;;;;5005451;28;20190;-76
2021/11/21 12:40:27;;;;;;;10.50;8.52;;;25.00;50.90;;;;;;5006852;28;20227;-76
2021/11/21 12:42:59;;;;;;;9.02;7.72;;;24.70;51.60;;;;;;5006444;28;20720;-76
2021/11/21 12:45:32;;;;;;;8.88;7.93;;;24.70;51.70;;;;;;5047325;28;20192;-76
2021/11/21 12:48:00;;;;;;;10.63;9.13;;;24.50;49.60;;;;;;5045348;28;20194;-76
2021/11/21 12:50:56;;;;;;;12.77;8.18;;;24.50;51.40;;;;;;5047271;28;20180;-77
2021/11/21 12:53:30;;;;;;;9.05;8.02;;;24.30;50.00;;;;;;5045843;28;20310;-76
2021/11/21 12:56:02;;;;;;;8.40;7.63;;;24.40;51.30;;;;;;5046808;28;20191;-76
2021/11/21 12:58:34;;;;;;;11.88;8.57;;;24.30;50.20;;;;;;5046738;28;20171;-76
2021/11/21 13:01:05;;;;;;;10.20;9.15;;;24.30;50.10;;;;;;5046551;28;20239;-76
2021/11/21 13:03:31;;;;;;;9.70;8.32;;;24.20;50.10;;;;;;5046963;28;20218;-76
2021/11/21 13:06:16;;;;;;;8.30;7.47;;;24.00;50.00;;;;;;5046545;28;20183;-76
2021/11/21 13:08:46;;;;;;;8.77;7.90;;;23.80;51.80;;;;;;5046994;28;20184;-76
2021/11/21 13:11:14;;;;;;;11.38;8.02;;;23.50;52.80;;;;;;5046336;28;20286;-76
2021/11/21 13:13:49;;;;;;;8.65;7.78;;;23.20;52.60;;;;;;5045970;28;20179;-76